createdAt,value
2023-04-12T00:01:52.315Z,100756.00
2023-04-12T00:04:22.778Z,100748.00
2023-04-12T00:06:51.024Z,100743.00
2023-04-12T00:09:17.787Z,100737.00
2023-04-12T00:11:44.606Z,100741.00
2023-04-12T00:14:11.700Z,100734.00
2023-04-12T00:16:38.998Z,100744.00
2023-04-12T00:19:06.760Z,100741.00
2023-04-12T00:21:33.638Z,100751.00
2023-04-12T00:24:01.249Z,100746.00
2023-04-12T00:26:28.312Z,100751.00
2023-04-12T00:28:55.391Z,100737.00
2023-04-12T00:31:22.313Z,100726.00
2023-04-12T00:33:49.142Z,100729.00
2023-04-12T00:36:16.260Z,100746.00
2023-04-12T00:38:45.788Z,100741.00
2023-04-12T00:41:14.932Z,100740.00
2023-04-12T00:43:42.252Z,100735.00
2023-04-12T00:46:09.652Z,100743.00
2023-04-12T00:48:38.359Z,100732.00
2023-04-12T00:51:07.579Z,100739.00
2023-04-12T00:53:34.505Z,100752.00
2023-04-12T00:56:01.797Z,100736.00
2023-04-12T00:58:28.689Z,100735.00
2023-04-12T01:00:55.474Z,100728.00
2023-04-12T01:03:24.142Z,100729.00
2023-04-12T01:06:15.870Z,100728.00
2023-04-12T01:08:57.675Z,100726.00
2023-04-12T01:11:44.958Z,100728.00
2023-04-12T01:14:36.026Z,100719.00
2023-04-12T01:17:07.431Z,100717.00
2023-04-12T01:20:13.143Z,100712.00
2023-04-12T01:23:07.042Z,100711.00
2023-04-12T01:26:11.397Z,100708.00
2023-04-12T01:28:42.478Z,100716.00
2023-04-12T01:31:12.961Z,100714.00
2023-04-12T01:33:44.450Z,100702.00
2023-04-12T01:36:16.568Z,100705.00
2023-04-12T01:38:44.126Z,100699.00
2023-04-12T01:41:11.008Z,100696.00
2023-04-12T01:43:46.759Z,100695.00
2023-04-12T01:46:17.888Z,100692.00
2023-04-12T01:48:52.375Z,100687.00
2023-04-12T01:51:52.591Z,100691.00
2023-04-12T01:54:28.127Z,100691.00
2023-04-12T01:56:59.904Z,100689.00
2023-04-12T01:59:43.405Z,100695.00
2023-04-12T02:02:12.969Z,100689.00
2023-04-12T02:04:42.855Z,100684.00
2023-04-12T02:07:09.756Z,100680.00
2023-04-12T02:09:40.078Z,100696.00
2023-04-12T02:12:09.706Z,100685.00
2023-04-12T02:14:36.945Z,100687.00
2023-04-12T02:17:04.294Z,100674.00
2023-04-12T02:19:32.523Z,100660.00
2023-04-12T02:21:59.489Z,100672.00
2023-04-12T02:24:27.311Z,100675.00
2023-04-12T02:26:55.161Z,100670.00
2023-04-12T02:29:22.109Z,100656.00
2023-04-12T02:31:49.141Z,100655.00
2023-04-12T02:34:17.962Z,100655.00
2023-04-12T02:36:49.571Z,100659.00
2023-04-12T02:39:22.200Z,100655.00
2023-04-12T02:41:49.250Z,100655.00
2023-04-12T02:44:16.026Z,100645.00
2023-04-12T02:46:43.463Z,100647.00
2023-04-12T02:49:10.181Z,100638.00
2023-04-12T02:51:38.375Z,100632.00
2023-04-12T02:54:05.995Z,100631.00
2023-04-12T02:56:36.093Z,100626.00
2023-04-12T02:59:02.896Z,100630.00
2023-04-12T03:01:29.754Z,100624.00
2023-04-12T03:03:56.906Z,100631.00
2023-04-12T03:06:24.004Z,100632.00
2023-04-12T03:08:50.880Z,100622.00
2023-04-12T03:11:17.635Z,100624.00
2023-04-12T03:13:44.354Z,100621.00
2023-04-12T03:16:29.787Z,100614.00
2023-04-12T03:18:56.908Z,100593.00
2023-04-12T03:21:23.656Z,100598.00
2023-04-12T03:23:51.238Z,100601.00
2023-04-12T03:26:20.455Z,100599.00
2023-04-12T03:28:47.956Z,100602.00
2023-04-12T03:31:15.544Z,100602.00
2023-04-12T03:33:42.415Z,100595.00
2023-04-12T03:36:10.486Z,100595.00
2023-04-12T03:38:37.245Z,100592.00
2023-04-12T03:41:04.069Z,100587.00
2023-04-12T03:43:35.841Z,100590.00
2023-04-12T03:46:04.762Z,100587.00
2023-04-12T03:48:32.072Z,100581.00
2023-04-12T03:50:59.729Z,100577.00
2023-04-12T03:53:32.625Z,100568.00
2023-04-12T03:55:59.591Z,100558.00
2023-04-12T03:58:26.950Z,100550.00
2023-04-12T04:00:53.703Z,100542.00
2023-04-12T04:03:22.783Z,100547.00
2023-04-12T04:05:50.374Z,100537.00
2023-04-12T04:08:17.205Z,100535.00
2023-04-12T04:10:43.996Z,100531.00
2023-04-12T04:13:11.039Z,100536.00
2023-04-12T04:15:38.413Z,100533.00
2023-04-12T04:18:05.595Z,100545.00
2023-04-12T04:20:32.826Z,100536.00
2023-04-12T04:22:59.573Z,100538.00
2023-04-12T04:25:30.143Z,100546.00
2023-04-12T04:27:59.536Z,100539.00
2023-04-12T04:30:26.594Z,100548.00
2023-04-12T04:32:53.624Z,100534.00
2023-04-12T04:35:20.577Z,100532.00
2023-04-12T04:37:47.641Z,100529.00
2023-04-12T04:40:15.290Z,100532.00
2023-04-12T04:42:43.336Z,100532.00
2023-04-12T04:45:14.648Z,100527.00
2023-04-12T04:47:41.536Z,100528.00
2023-04-12T04:50:08.728Z,100520.00
2023-04-12T04:52:37.629Z,100527.00
2023-04-12T04:55:07.380Z,100525.00
2023-04-12T04:57:36.444Z,100524.00
2023-04-12T05:00:11.181Z,100527.00
2023-04-12T05:02:40.190Z,100522.00
2023-04-12T05:05:13.528Z,100509.00
2023-04-12T05:07:40.709Z,100514.00
2023-04-12T05:10:08.424Z,100508.00
2023-04-12T05:12:35.961Z,100513.00
2023-04-12T05:15:11.661Z,100521.00
2023-04-12T05:17:39.093Z,100525.00
2023-04-12T05:20:08.571Z,100522.00
2023-04-12T05:22:35.571Z,100518.00
2023-04-12T05:25:03.548Z,100514.00
2023-04-12T05:27:31.126Z,100510.00
2023-04-12T05:29:58.667Z,100506.00
2023-04-12T05:32:26.404Z,100506.00
2023-04-12T05:34:53.294Z,100509.00
2023-04-12T05:37:20.075Z,100498.00
2023-04-12T05:39:46.874Z,100509.00
2023-04-12T05:42:13.651Z,100500.00
2023-04-12T05:44:40.490Z,100492.00
2023-04-12T05:47:07.237Z,100484.00
2023-04-12T05:49:34.039Z,100487.00
2023-04-12T05:52:00.945Z,100476.00
2023-04-12T05:54:27.747Z,100482.00
2023-04-12T05:56:55.564Z,100476.00
2023-04-12T05:59:22.684Z,100472.00
2023-04-12T06:01:49.927Z,100460.00
2023-04-12T06:04:17.590Z,100465.00
2023-04-12T06:06:45.561Z,100457.00
2023-04-12T06:09:12.387Z,100461.00
2023-04-12T06:11:39.380Z,100450.00
2023-04-12T06:14:06.517Z,100441.00
2023-04-12T06:16:33.431Z,100446.00
2023-04-12T06:19:00.767Z,100436.00
2023-04-12T06:21:27.855Z,100438.00
2023-04-12T06:23:54.625Z,100443.00
2023-04-12T06:26:21.744Z,100428.00
2023-04-12T06:28:48.528Z,100435.00
2023-04-12T06:31:17.105Z,100425.00
2023-04-12T06:33:44.036Z,100427.00
2023-04-12T06:36:11.681Z,100420.00
2023-04-12T06:38:39.257Z,100416.00
2023-04-12T06:41:06.891Z,100414.00
2023-04-12T06:43:33.886Z,100424.00
2023-04-12T06:46:03.026Z,100415.00
2023-04-12T06:48:30.201Z,100415.00
2023-04-12T06:50:57.054Z,100411.00
2023-04-12T06:53:23.772Z,100401.00
2023-04-12T06:55:50.857Z,100399.00
2023-04-12T06:58:17.884Z,100404.00
2023-04-12T07:00:44.709Z,100404.00
2023-04-12T07:03:12.234Z,100398.00
2023-04-12T07:05:39.393Z,100390.00
2023-04-12T07:08:07.542Z,100395.00
2023-04-12T07:10:37.256Z,100386.00
2023-04-12T07:13:07.159Z,100383.00
2023-04-12T07:15:34.287Z,100388.00
2023-04-12T07:18:01.125Z,100385.00
2023-04-12T07:20:27.912Z,100378.00
2023-04-12T07:22:54.686Z,100374.00
2023-04-12T07:25:21.448Z,100366.00
2023-04-12T07:27:49.340Z,100366.00
2023-04-12T07:30:18.115Z,100358.00
2023-04-12T07:32:44.960Z,100368.00
2023-04-12T07:35:11.758Z,100370.00
2023-04-12T07:37:38.527Z,100359.00
2023-04-12T07:40:06.786Z,100353.00
2023-04-12T07:42:33.600Z,100338.00
2023-04-12T07:45:00.570Z,100337.00
2023-04-12T07:47:27.420Z,100331.00
2023-04-12T07:49:55.238Z,100335.00
2023-04-12T07:52:22.046Z,100333.00
2023-04-12T07:54:48.833Z,100330.00
2023-04-12T07:57:15.971Z,100332.00
2023-04-12T07:59:42.707Z,100317.00
2023-04-12T08:02:09.601Z,100319.00
2023-04-12T08:04:36.422Z,100310.00
2023-04-12T08:07:03.293Z,100310.00
2023-04-12T08:09:30.831Z,100298.00
2023-04-12T08:11:58.324Z,100304.00
2023-04-12T08:14:25.077Z,100293.00
2023-04-12T08:16:52.819Z,100292.00
2023-04-12T08:19:20.774Z,100289.00
2023-04-12T08:21:47.564Z,100288.00
2023-04-12T08:24:14.840Z,100288.00
2023-04-12T08:26:41.657Z,100288.00
2023-04-12T08:29:08.391Z,100283.00
2023-04-12T08:31:35.411Z,100280.00
2023-04-12T08:34:02.246Z,100277.00
2023-04-12T08:36:29.035Z,100275.00
2023-04-12T08:39:00.473Z,100271.00
2023-04-12T08:41:27.559Z,100269.00
2023-04-12T08:43:57.901Z,100268.00
2023-04-12T08:46:25.798Z,100258.00
2023-04-12T08:48:57.128Z,100257.00
2023-04-12T08:51:24.016Z,100243.00
2023-04-12T08:53:51.646Z,100242.00
2023-04-12T08:56:20.117Z,100232.00
2023-04-12T08:58:50.682Z,100229.00
2023-04-12T09:01:20.306Z,100231.00
2023-04-12T09:03:47.637Z,100243.00
2023-04-12T09:06:14.568Z,100231.00
2023-04-12T09:08:55.955Z,100227.00
2023-04-12T09:11:28.293Z,100225.00
2023-04-12T09:13:57.672Z,100217.00
2023-04-12T09:16:40.591Z,100208.00
2023-04-12T09:19:08.797Z,100204.00
2023-04-12T09:21:37.196Z,100195.00
2023-04-12T09:24:13.590Z,100196.00
2023-04-12T09:26:41.378Z,100199.00
2023-04-12T09:29:25.079Z,100201.00
2023-04-12T09:32:06.679Z,100201.00
2023-04-12T09:34:35.942Z,100187.00
2023-04-12T09:37:16.780Z,100179.00
2023-04-12T09:39:44.013Z,100182.00
2023-04-12T09:42:31.651Z,100177.00
2023-04-12T09:45:01.651Z,100172.00
2023-04-12T09:47:41.729Z,100158.00
2023-04-12T09:50:09.956Z,100156.00
2023-04-12T09:52:38.822Z,100157.00
2023-04-12T09:55:10.604Z,100147.00
2023-04-12T09:57:45.517Z,100141.00
2023-04-12T10:00:17.748Z,100132.00
2023-04-12T10:02:48.851Z,100134.00
2023-04-12T10:05:19.660Z,100129.00
2023-04-12T10:07:47.975Z,100120.00
2023-04-12T10:10:18.049Z,100124.00
2023-04-12T10:12:47.992Z,100113.00
2023-04-12T10:15:21.152Z,100111.00
2023-04-12T10:17:57.346Z,100094.00
2023-04-12T10:20:28.097Z,100093.00
2023-04-12T10:22:56.610Z,100093.00
2023-04-12T10:25:27.863Z,100073.00
2023-04-12T10:27:54.765Z,100066.00
2023-04-12T10:30:22.845Z,100067.00
2023-04-12T10:33:05.527Z,100069.00
2023-04-12T10:36:03.649Z,100057.00
2023-04-12T10:38:37.391Z,100048.00
2023-04-12T10:41:18.082Z,100044.00
2023-04-12T10:43:49.658Z,100042.00
2023-04-12T10:46:38.689Z,100041.00
2023-04-12T10:49:13.780Z,100029.00
2023-04-12T10:52:01.459Z,100028.00
2023-04-12T10:54:36.677Z,100016.00
2023-04-12T10:57:04.683Z,100016.00
2023-04-12T10:59:54.145Z,100008.00
2023-04-12T11:02:21.571Z,100007.00
2023-04-12T11:05:09.988Z,100006.00
2023-04-12T11:07:45.278Z,100004.00
2023-04-12T11:10:21.780Z,99995.00
2023-04-12T11:12:50.671Z,100000.00
2023-04-12T11:15:18.207Z,99987.00
2023-04-12T11:17:55.486Z,99986.00
2023-04-12T11:20:22.650Z,99980.00
2023-04-12T11:22:51.735Z,99981.00
2023-04-12T11:25:18.825Z,99976.00
2023-04-12T11:27:54.738Z,99964.00
2023-04-12T11:30:24.022Z,99970.00
2023-04-12T11:32:50.992Z,99968.00
2023-04-12T11:35:20.341Z,99959.00
2023-04-12T11:37:47.237Z,99954.00
2023-04-12T11:40:14.833Z,99949.00
2023-04-12T11:42:42.017Z,99941.00
2023-04-12T11:45:16.997Z,99954.00
2023-04-12T11:47:46.546Z,99945.00
2023-04-12T11:50:13.622Z,99947.00
2023-04-12T11:52:41.220Z,99937.00
2023-04-12T11:55:10.901Z,99931.00
2023-04-12T11:57:38.985Z,99932.00
2023-04-12T12:00:07.043Z,99932.00
2023-04-12T12:02:43.622Z,99914.00
2023-04-12T12:05:20.604Z,99910.00
2023-04-12T12:07:47.616Z,99915.00
2023-04-12T12:10:24.164Z,99896.00
2023-04-12T12:13:01.014Z,99896.00
2023-04-12T12:15:31.953Z,99898.00
2023-04-12T12:17:58.802Z,99881.00
2023-04-12T12:20:27.325Z,99880.00
2023-04-12T12:22:54.298Z,99870.00
2023-04-12T12:25:23.054Z,99868.00
2023-04-12T12:27:51.276Z,99867.00
2023-04-12T12:30:21.941Z,99853.00
2023-04-12T12:32:52.931Z,99859.00
2023-04-12T12:35:19.731Z,99851.00
2023-04-12T12:37:52.383Z,99839.00
2023-04-12T12:40:29.384Z,99826.00
2023-04-12T12:42:56.567Z,99835.00
2023-04-12T12:45:29.325Z,99821.00
2023-04-12T12:48:02.874Z,99825.00
2023-04-12T12:50:34.902Z,99824.00
2023-04-12T12:53:03.419Z,99825.00
2023-04-12T12:55:31.462Z,99812.00
2023-04-12T12:58:06.947Z,99809.00
2023-04-12T13:00:35.372Z,99822.00
2023-04-12T13:03:02.579Z,99824.00
2023-04-12T13:05:30.315Z,99806.00
2023-04-12T13:07:57.096Z,99808.00
2023-04-12T13:10:24.346Z,99801.00
2023-04-12T13:12:51.421Z,99793.00
2023-04-12T13:15:23.106Z,99791.00
2023-04-12T13:17:53.853Z,99785.00
2023-04-12T13:20:21.674Z,99787.00
2023-04-12T13:22:49.300Z,99780.00
2023-04-12T13:25:16.257Z,99775.00
2023-04-12T13:27:43.017Z,99775.00
2023-04-12T13:30:10.344Z,99759.00
2023-04-12T13:32:37.760Z,99768.00
2023-04-12T13:35:06.390Z,99763.00
2023-04-12T13:37:34.376Z,99755.00
2023-04-12T13:40:01.149Z,99756.00
2023-04-12T13:42:27.991Z,99763.00
2023-04-12T13:44:54.797Z,99756.00
2023-04-12T13:47:22.411Z,99738.00
2023-04-12T13:49:49.617Z,99752.00
2023-04-12T13:52:16.403Z,99742.00
2023-04-12T13:54:43.254Z,99732.00
2023-04-12T13:57:10.437Z,99727.00
2023-04-12T13:59:37.267Z,99721.00
2023-04-12T14:02:04.148Z,99721.00
2023-04-12T14:04:31.995Z,99720.00
2023-04-12T14:06:59.661Z,99717.00
2023-04-12T14:09:31.574Z,99716.00
2023-04-12T14:12:01.504Z,99708.00
2023-04-12T14:14:28.409Z,99706.00
2023-04-12T14:17:01.818Z,99699.00
2023-04-12T14:19:29.039Z,99699.00
2023-04-12T14:21:56.695Z,99702.00
2023-04-12T14:24:23.803Z,99701.00
2023-04-12T14:26:50.598Z,99698.00
2023-04-12T14:29:17.462Z,99698.00
2023-04-12T14:31:44.304Z,99702.00
2023-04-12T14:34:11.360Z,99702.00
2023-04-12T14:36:38.217Z,99702.00
2023-04-12T14:39:09.383Z,99698.00
2023-04-12T14:41:37.432Z,99718.00
2023-04-12T14:44:04.226Z,99703.00
2023-04-12T14:46:31.838Z,99714.00
2023-04-12T14:49:01.057Z,99710.00
2023-04-12T14:51:29.056Z,99697.00
2023-04-12T14:53:56.295Z,99704.00
2023-04-12T14:56:31.063Z,99704.00
2023-04-12T14:58:58.481Z,99691.00
2023-04-12T15:01:25.776Z,99693.00
2023-04-12T15:03:53.615Z,99702.00
2023-04-12T15:06:23.600Z,99702.00
2023-04-12T15:08:55.039Z,99710.00
2023-04-12T15:11:26.556Z,99705.00
2023-04-12T15:13:54.695Z,99723.00
2023-04-12T15:16:21.969Z,99720.00
2023-04-12T15:18:51.116Z,99719.00
2023-04-12T15:21:18.059Z,99708.00
2023-04-12T15:23:45.033Z,99718.00
2023-04-12T15:26:14.810Z,99721.00
2023-04-12T15:28:42.324Z,99723.00
2023-04-12T15:31:09.617Z,99731.00
2023-04-12T15:33:37.278Z,99719.00
2023-04-12T15:36:05.584Z,99726.00
2023-04-12T15:38:32.567Z,99737.00
2023-04-12T15:41:02.539Z,99728.00
2023-04-12T15:43:29.467Z,99731.00
2023-04-12T15:45:56.665Z,99734.00
2023-04-12T15:48:25.603Z,99730.00
2023-04-12T15:50:53.857Z,99724.00
2023-04-12T15:53:24.075Z,99725.00
2023-04-12T15:55:57.654Z,99718.00
2023-04-12T15:58:26.929Z,99732.00
2023-04-12T16:00:53.923Z,99742.00
2023-04-12T16:03:23.419Z,99734.00
2023-04-12T16:05:54.225Z,99730.00
2023-04-12T16:08:22.292Z,99721.00
2023-04-12T16:10:50.846Z,99720.00
2023-04-12T16:13:18.293Z,99719.00
2023-04-12T16:15:46.024Z,99709.00
2023-04-12T16:18:13.165Z,99712.00
2023-04-12T16:20:42.726Z,99700.00
2023-04-12T16:23:09.844Z,99698.00
2023-04-12T16:25:36.709Z,99699.00
2023-04-12T16:28:04.033Z,99695.00
2023-04-12T16:30:35.049Z,99689.00
2023-04-12T16:33:02.030Z,99690.00
2023-04-12T16:35:28.924Z,99691.00
2023-04-12T16:37:55.742Z,99676.00
2023-04-12T16:40:24.513Z,99683.00
2023-04-12T16:42:51.605Z,99675.00
2023-04-12T16:45:18.414Z,99686.00
2023-04-12T16:47:48.020Z,99676.00
2023-04-12T16:50:15.474Z,99679.00
2023-04-12T16:52:42.436Z,99668.00
2023-04-12T16:55:13.450Z,99681.00
2023-04-12T16:57:42.911Z,99672.00
2023-04-12T17:00:22.674Z,99674.00
2023-04-12T17:02:52.053Z,99679.00
2023-04-12T17:05:21.022Z,99674.00
2023-04-12T17:07:51.418Z,99673.00
2023-04-12T17:10:21.662Z,99677.00
2023-04-12T17:12:51.821Z,99677.00
2023-04-12T17:15:21.808Z,99677.00
2023-04-12T17:17:52.484Z,99665.00
2023-04-12T17:20:22.358Z,99657.00
2023-04-12T17:22:50.037Z,99658.00
2023-04-12T17:25:18.733Z,99661.00
2023-04-12T17:27:47.319Z,99658.00
2023-04-12T17:30:16.381Z,99656.00
2023-04-12T17:32:45.080Z,99649.00
2023-04-12T17:35:13.126Z,99646.00
2023-04-12T17:37:40.726Z,99647.00
2023-04-12T17:40:11.203Z,99647.00
2023-04-12T17:42:40.460Z,99647.00
2023-04-12T17:45:08.998Z,99653.00
2023-04-12T17:47:36.108Z,99639.00
2023-04-12T17:50:03.238Z,99628.00
2023-04-12T17:52:30.307Z,99629.00
2023-04-12T17:54:57.986Z,99622.00
2023-04-12T17:57:24.758Z,99626.00
2023-04-12T17:59:51.818Z,99630.00
2023-04-12T18:02:18.784Z,99630.00
2023-04-12T18:04:46.293Z,99625.00
2023-04-12T18:07:13.433Z,99632.00
2023-04-12T18:09:44.567Z,99628.00
2023-04-12T18:12:11.890Z,99635.00
2023-04-12T18:14:40.474Z,99635.00
2023-04-12T18:17:08.114Z,99635.00
2023-04-12T18:19:34.991Z,99640.00
2023-04-12T18:22:01.942Z,99643.00
2023-04-12T18:24:28.748Z,99644.00
2023-04-12T18:26:56.960Z,99629.00
2023-04-12T18:29:23.700Z,99636.00
2023-04-12T18:31:50.512Z,99631.00
2023-04-12T18:34:18.991Z,99629.00
2023-04-12T18:36:45.869Z,99631.00
2023-04-12T18:39:12.651Z,99626.00
2023-04-12T18:41:40.911Z,99632.00
2023-04-12T18:44:09.109Z,99630.00
2023-04-12T18:46:36.282Z,99624.00
2023-04-12T18:49:04.532Z,99626.00
2023-04-12T18:51:32.869Z,99629.00
2023-04-12T18:54:00.695Z,99626.00
2023-04-12T18:56:27.914Z,99626.00
2023-04-12T18:58:56.950Z,99626.00
2023-04-12T19:01:25.788Z,99619.00
2023-04-12T19:03:52.924Z,99623.00
2023-04-12T19:06:19.977Z,99626.00
2023-04-12T19:08:46.919Z,99621.00
2023-04-12T19:11:13.857Z,99631.00
2023-04-12T19:13:40.590Z,99639.00
2023-04-12T19:16:07.898Z,99638.00
2023-04-12T19:18:35.171Z,99627.00
2023-04-12T19:21:05.477Z,99622.00
2023-04-12T19:23:32.334Z,99622.00
2023-04-12T19:26:00.162Z,99607.00
2023-04-12T19:28:27.979Z,99600.00
2023-04-12T19:30:57.568Z,99607.00
2023-04-12T19:33:24.858Z,99599.00
2023-04-12T19:35:52.230Z,99610.00
2023-04-12T19:38:21.133Z,99601.00
2023-04-12T19:40:50.861Z,99607.00
2023-04-12T19:43:21.051Z,99602.00
2023-04-12T19:45:48.060Z,99604.00
2023-04-12T19:48:14.898Z,99598.00
2023-04-12T19:50:42.804Z,99598.00
2023-04-12T19:53:11.033Z,99598.00
2023-04-12T19:55:38.878Z,99588.00
2023-04-12T19:58:06.119Z,99587.00
2023-04-12T20:00:32.871Z,99590.00
2023-04-12T20:02:59.845Z,99600.00
2023-04-12T20:05:29.258Z,99594.00
2023-04-12T20:07:56.260Z,99586.00
2023-04-12T20:10:23.097Z,99586.00
2023-04-12T20:12:50.024Z,99583.00
2023-04-12T20:15:17.807Z,99579.00
2023-04-12T20:17:45.853Z,99576.00
2023-04-12T20:20:16.004Z,99576.00
2023-04-12T20:22:45.941Z,99567.00
2023-04-12T20:25:14.323Z,99554.00
2023-04-12T20:27:41.252Z,99545.00
2023-04-12T20:30:11.006Z,99554.00
2023-04-12T20:32:37.872Z,99556.00
2023-04-12T20:35:05.168Z,99546.00
2023-04-12T20:37:32.661Z,99537.00
2023-04-12T20:39:59.484Z,99531.00
2023-04-12T20:42:26.930Z,99523.00
2023-04-12T20:44:53.813Z,99525.00
2023-04-12T20:47:21.159Z,99531.00
2023-04-12T20:49:47.900Z,99526.00
2023-04-12T20:52:18.751Z,99526.00
2023-04-12T20:54:45.792Z,99531.00
2023-04-12T20:57:14.020Z,99532.00
2023-04-12T20:59:40.975Z,99535.00
2023-04-12T21:02:09.222Z,99517.00
2023-04-12T21:04:36.600Z,99524.00
2023-04-12T21:07:04.812Z,99529.00
2023-04-12T21:09:31.645Z,99521.00
2023-04-12T21:11:59.106Z,99529.00
2023-04-12T21:14:25.910Z,99519.00
2023-04-12T21:16:52.900Z,99521.00
2023-04-12T21:19:19.628Z,99525.00
2023-04-12T21:21:46.646Z,99526.00
2023-04-12T21:24:13.710Z,99517.00
2023-04-12T21:26:42.767Z,99527.00
2023-04-12T21:29:10.481Z,99516.00
2023-04-12T21:31:39.096Z,99518.00
2023-04-12T21:34:07.516Z,99514.00
2023-04-12T21:36:34.297Z,99526.00
2023-04-12T21:39:01.394Z,99523.00
2023-04-12T21:41:29.810Z,99525.00
2023-04-12T21:43:56.710Z,99522.00
2023-04-12T21:46:27.759Z,99529.00
2023-04-12T21:48:54.944Z,99525.00
2023-04-12T21:51:23.426Z,99524.00
2023-04-12T21:53:50.188Z,99520.00
2023-04-12T21:56:16.999Z,99521.00
2023-04-12T21:58:43.724Z,99512.00
2023-04-12T22:01:10.546Z,99512.00
2023-04-12T22:03:37.455Z,99515.00
2023-04-12T22:06:05.335Z,99515.00
2023-04-12T22:08:33.102Z,99511.00
2023-04-12T22:11:00.335Z,99512.00
2023-04-12T22:13:27.595Z,99505.00
2023-04-12T22:15:54.382Z,99502.00
2023-04-12T22:18:21.313Z,99509.00
2023-04-12T22:20:48.252Z,99511.00
2023-04-12T22:23:17.897Z,99511.00
2023-04-12T22:25:46.091Z,99522.00
2023-04-12T22:28:12.858Z,99510.00
2023-04-12T22:30:39.827Z,99529.00
2023-04-12T22:33:08.394Z,99520.00
2023-04-12T22:35:36.455Z,99525.00
2023-04-12T22:38:04.122Z,99528.00
2023-04-12T22:40:30.888Z,99536.00
2023-04-12T22:42:58.088Z,99533.00
2023-04-12T22:45:25.072Z,99544.00
2023-04-12T22:47:52.934Z,99543.00
2023-04-12T22:50:20.342Z,99531.00
2023-04-12T22:52:50.161Z,99525.00
2023-04-12T22:55:18.172Z,99516.00
2023-04-12T22:57:45.078Z,99512.00
2023-04-12T23:00:15.853Z,99504.00
2023-04-12T23:02:43.967Z,99504.00
2023-04-12T23:05:12.140Z,99502.00
2023-04-12T23:07:41.195Z,99518.00
2023-04-12T23:10:09.064Z,99514.00
2023-04-12T23:12:37.331Z,99513.00
2023-04-12T23:15:05.706Z,99521.00
2023-04-12T23:17:32.873Z,99523.00
2023-04-12T23:20:02.109Z,99528.00
2023-04-12T23:22:55.131Z,99521.00
2023-04-12T23:25:39.750Z,99500.00
2023-04-12T23:28:15.183Z,99510.00
2023-04-12T23:30:48.646Z,99508.00
2023-04-12T23:33:18.507Z,99501.00
2023-04-12T23:35:49.331Z,99508.00
2023-04-12T23:38:23.219Z,99515.00
2023-04-12T23:40:53.802Z,99514.00
2023-04-12T23:43:25.413Z,99499.00
2023-04-12T23:45:52.743Z,99509.00
2023-04-12T23:48:19.629Z,99524.00
2023-04-12T23:50:46.724Z,99530.00
2023-04-12T23:53:14.110Z,99523.00
2023-04-12T23:55:47.429Z,99512.00
2023-04-12T23:58:15.052Z,99494.00
